Time;durP1;ratioP1;P1;durP2;ratioP2;P2;SDS_P1;SDS_P2;PMS_P1;PMS_P2;Temp;Humidity;BMP_temperature;BMP_pressure;BME280_temperature;BME280_humidity;BME280_pressure;Samples;Min_cycle;Max_cycle;Signal;HPM_P1;HPM_P2
2023/10/18 00:01:49;;;;;;;;;;;;;;;;;;4976871;28;19921;-91
2023/10/18 00:04:17;;;;;;;;;;;;;;;;;;4988470;28;19937;-90
2023/10/18 00:06:47;;;;;;;;;;;;;;;;;;4989938;28;19917;-90
2023/10/18 00:12:00;;;;;;;;;;;;;;;;;;5002633;28;20394;-91
2023/10/18 00:14:26;;;;;;;;;;;;;;;;;;4984261;28;19969;-91
2023/10/18 00:16:52;;;;;;;;;;;;;;;;;;4988680;28;24057;-91
2023/10/18 00:19:18;;;;;;;;;;;;;;;;;;4982931;28;20021;-93
2023/10/18 00:21:44;;;;;;;;;;;;;;;;;;4985352;28;19914;-92
2023/10/18 00:24:10;;;;;;;;;;;;;;;;;;4981909;28;19913;-93
2023/10/18 00:26:36;;;;;;;;;;;;;;;;;;4978647;28;19944;-92
2023/10/18 00:29:02;;;;;;;;;;;;;;;;;;4985005;28;19917;-91
2023/10/18 00:31:28;;;;;;;;;;;;;;;;;;4981753;28;19920;-92
2023/10/18 00:33:54;;;;;;;;;;;;;;;;;;4987689;28;19918;-92
2023/10/18 00:36:20;;;;;;;;;;;;;;;;;;4984188;28;20384;-91
2023/10/18 00:38:46;;;;;;;;;;;;;;;;;;4988719;28;19925;-91
2023/10/18 00:43:57;;;;;;;;;;;;;;;;;;5025528;28;20052;-91
2023/10/18 00:46:23;;;;;;;;;;;;;;;;;;5007034;28;20011;-91
2023/10/18 00:48:48;;;;;;;;;;;;;;;;;;5008457;28;19952;-91
2023/10/18 00:51:16;;;;;;;;;;;;;;;;;;5012102;28;19917;-91
2023/10/18 00:53:42;;;;;;;;;;;;;;;;;;5006204;28;19914;-92
2023/10/18 00:56:17;;;;;;;;;;;;;;;;;;5006730;28;19917;-90
2023/10/18 00:58:47;;;;;;;;;;;;;;;;;;5003958;28;19921;-92
2023/10/18 01:01:13;;;;;;;;;;;;;;;;;;5010588;28;20361;-92
2023/10/18 01:03:41;;;;;;;;;;;;;;;;;;5010559;28;19944;-92
2023/10/18 01:06:08;;;;;;;;;;;;;;;;;;5010196;28;20348;-92
2023/10/18 01:08:37;;;;;;;;;;;;;;;;;;5006280;28;20343;-91
2023/10/18 01:11:10;;;;;;;;;;;;;;;;;;5008597;28;19920;-93
2023/10/18 01:13:37;;;;;;;;;;;;;;;;;;5003979;28;19917;-92
2023/10/18 01:16:06;;;;;;;;;;;;;;;;;;5006566;28;20157;-93
2023/10/18 01:18:31;;;;;;;;;;;;;;;;;;5008597;28;19918;-90
2023/10/18 01:20:58;;;;;;;;;;;;;;;;;;5009297;28;19918;-90
2023/10/18 01:23:24;;;;;;;;;;;;;;;;;;5006863;28;20041;-91
2023/10/18 01:25:49;;;;;;;;;;;;;;;;;;5013514;28;19913;-90
2023/10/18 01:28:16;;;;;;;;;;;;;;;;;;5010564;28;19956;-90
2023/10/18 01:30:42;;;;;;;;;;;;;;;;;;5022848;28;19921;-90
2023/10/18 01:33:15;;;;;;;;;;;;;;;;;;5013847;28;19941;-90
2023/10/18 01:35:50;;;;;;;;;;;;;;;;;;5025016;28;19967;-90
2023/10/18 01:38:17;;;;;;;;;;;;;;;;;;5014396;28;19921;-90
2023/10/18 01:40:43;;;;;;;;;;;;;;;;;;5020710;28;20624;-90
2023/10/18 01:43:11;;;;;;;;;;;;;;;;;;5011240;28;19963;-90
2023/10/18 01:45:38;;;;;;;;;;;;;;;;;;5025027;28;20281;-90
2023/10/18 01:48:09;;;;;;;;;;;;;;;;;;5010810;28;19924;-90
2023/10/18 01:50:35;;;;;;;;;;;;;;;;;;5018386;28;19917;-90
2023/10/18 01:53:03;;;;;;;;;;;;;;;;;;5002382;28;19922;-91
2023/10/18 01:55:31;;;;;;;;;;;;;;;;;;5021448;28;19917;-90
2023/10/18 01:57:58;;;;;;;;;;;;;;;;;;5006325;28;19932;-91
2023/10/18 02:00:34;;;;;;;;;;;;;;;;;;5027077;28;19913;-89
2023/10/18 02:03:00;;;;;;;;;;;;;;;;;;5026798;28;19917;-90
2023/10/18 02:05:26;;;;;;;;;;;;;;;;;;5024333;28;19921;-90
2023/10/18 02:07:55;;;;;;;;;;;;;;;;;;5022268;28;19959;-90
2023/10/18 02:10:23;;;;;;;;;;;;;;;;;;5008383;28;19964;-89
2023/10/18 02:12:49;;;;;;;;;;;;;;;;;;5023596;28;20327;-91
2023/10/18 02:15:14;;;;;;;;;;;;;;;;;;5027421;28;19913;-90
2023/10/18 02:17:43;;;;;;;;;;;;;;;;;;5007880;28;19956;-91
2023/10/18 02:20:25;;;;;;;;;;;;;;;;;;5021159;28;20344;-89
2023/10/18 02:22:53;;;;;;;;;;;;;;;;;;5003934;28;19913;-90
2023/10/18 02:26:09;;;;;;;;;;;;;;;;;;5022506;28;19964;-90
2023/10/18 02:28:08;;;;;;;;;;;;;;;;;;5014739;28;19928;-91
2023/10/18 02:30:34;;;;;;;;;;;;;;;;;;5023318;28;19920;-89
2023/10/18 02:33:02;;;;;;;;;;;;;;;;;;5026568;28;19916;-90
2023/10/18 02:35:28;;;;;;;;;;;;;;;;;;5011595;28;19920;-90
2023/10/18 02:37:53;;;;;;;;;;;;;;;;;;5026645;28;19921;-90
2023/10/18 02:40:29;;;;;;;;;;;;;;;;;;5025625;28;19936;-90
2023/10/18 02:42:57;;;;;;;;;;;;;;;;;;5025566;28;19924;-90
2023/10/18 02:45:23;;;;;;;;;;;;;;;;;;5024078;28;19943;-90
2023/10/18 02:47:51;;;;;;;;;;;;;;;;;;5021291;28;19918;-90
2023/10/18 02:50:17;;;;;;;;;;;;;;;;;;5021367;28;20007;-90
2023/10/18 02:52:43;;;;;;;;;;;;;;;;;;5018407;28;20016;-89
2023/10/18 02:55:13;;;;;;;;;;;;;;;;;;5009754;28;20016;-91
2023/10/18 02:57:42;;;;;;;;;;;;;;;;;;5022220;28;19925;-91
2023/10/18 03:00:11;;;;;;;;;;;;;;;;;;5005050;28;19913;-91
2023/10/18 03:02:38;;;;;;;;;;;;;;;;;;5019586;28;19913;-90
2023/10/18 03:05:05;;;;;;;;;;;;;;;;;;5019434;28;19913;-91
2023/10/18 03:07:31;;;;;;;;;;;;;;;;;;5020307;28;19928;-91
2023/10/18 03:10:11;;;;;;;;;;;;;;;;;;5024644;28;19921;-90
2023/10/18 03:12:37;;;;;;;;;;;;;;;;;;5023214;28;19940;-91
2023/10/18 03:15:08;;;;;;;;;;;;;;;;;;5019608;28;19917;-91
2023/10/18 03:17:37;;;;;;;;;;;;;;;;;;5026913;28;20015;-91
2023/10/18 03:20:20;;;;;;;;;;;;;;;;;;5023626;28;19913;-91
2023/10/18 03:22:48;;;;;;;;;;;;;;;;;;5005998;28;19913;-92
2023/10/18 03:25:16;;;;;;;;;;;;;;;;;;5019082;28;19919;-90
2023/10/18 03:27:49;;;;;;;;;;;;;;;;;;5021676;28;19967;-90
2023/10/18 03:30:18;;;;;;;;;;;;;;;;;;5021573;28;19917;-90
2023/10/18 03:32:50;;;;;;;;;;;;;;;;;;5025845;28;19913;-90
2023/10/18 03:35:16;;;;;;;;;;;;;;;;;;5026635;28;19917;-91
2023/10/18 03:37:43;;;;;;;;;;;;;;;;;;5022358;28;19945;-89
2023/10/18 03:40:24;;;;;;;;;;;;;;;;;;5030662;27;19974;-89
2023/10/18 03:42:51;;;;;;;;;;;;;;;;;;5009411;28;19948;-91
2023/10/18 03:45:43;;;;;;;;;;;;;;;;;;5024052;28;19928;-90
2023/10/18 03:48:23;;;;;;;;;;;;;;;;;;5026630;28;19917;-90
2023/10/18 03:50:49;;;;;;;;;;;;;;;;;;5023544;28;19959;-90
2023/10/18 03:53:18;;;;;;;;;;;;;;;;;;5021864;28;19918;-90
2023/10/18 03:55:45;;;;;;;;;;;;;;;;;;5004512;28;20250;-89
2023/10/18 03:58:17;;;;;;;;;;;;;;;;;;5027580;28;19925;-90
2023/10/18 04:01:01;;;;;;;;;;;;;;;;;;5023515;28;19921;-90
2023/10/18 04:03:29;;;;;;;;;;;;;;;;;;5007445;28;19948;-90
2023/10/18 04:05:57;;;;;;;;;;;;;;;;;;5026107;28;19921;-90
2023/10/18 04:08:23;;;;;;;;;;;;;;;;;;5024103;28;20338;-89
2023/10/18 04:10:48;;;;;;;;;;;;;;;;;;5030796;28;19964;-90
2023/10/18 04:13:14;;;;;;;;;;;;;;;;;;5012308;28;20012;-91
2023/10/18 04:15:49;;;;;;;;;;;;;;;;;;5031419;28;19921;-90
2023/10/18 04:18:25;;;;;;;;;;;;;;;;;;5027809;28;19925;-90
2023/10/18 04:20:58;;;;;;;;;;;;;;;;;;5029982;28;20341;-90
2023/10/18 04:23:27;;;;;;;;;;;;;;;;;;5029535;28;19913;-88
2023/10/18 04:26:10;;;;;;;;;;;;;;;;;;5025932;28;20266;-90
2023/10/18 04:28:39;;;;;;;;;;;;;;;;;;5010072;28;20428;-90
2023/10/18 04:31:08;;;;;;;;;;;;;;;;;;5022547;28;20802;-90
2023/10/18 04:33:35;;;;;;;;;;;;;;;;;;5023089;28;19959;-90
2023/10/18 04:36:01;;;;;;;;;;;;;;;;;;5012052;28;19979;-90
2023/10/18 04:38:36;;;;;;;;;;;;;;;;;;5027392;28;19921;-90
2023/10/18 04:41:09;;;;;;;;;;;;;;;;;;5029076;28;19968;-90
2023/10/18 04:43:36;;;;;;;;;;;;;;;;;;5024685;28;19917;-90
2023/10/18 04:46:14;;;;;;;;;;;;;;;;;;5008058;28;19913;-90
2023/10/18 04:49:36;;;;;;;;;;;;;;;;;;5026703;28;19927;-90
2023/10/18 04:51:33;;;;;;;;;;;;;;;;;;5023640;28;20012;-90
2023/10/18 04:54:09;;;;;;;;;;;;;;;;;;5008800;28;20301;-91
2023/10/18 04:56:37;;;;;;;;;;;;;;;;;;5030444;28;20411;-90
2023/10/18 04:59:11;;;;;;;;;;;;;;;;;;5027149;28;20590;-90
2023/10/18 05:01:41;;;;;;;;;;;;;;;;;;5022018;28;19943;-90
2023/10/18 05:06:55;;;;;;;;;;;;;;;;;;5019610;28;20024;-90
2023/10/18 05:09:29;;;;;;;;;;;;;;;;;;5030087;28;20017;-89
2023/10/18 05:11:55;;;;;;;;;;;;;;;;;;5011190;28;20007;-89
2023/10/18 05:14:35;;;;;;;;;;;;;;;;;;5011354;28;20004;-90
2023/10/18 05:17:01;;;;;;;;;;;;;;;;;;5011643;28;19924;-91
2023/10/18 05:19:31;;;;;;;;;;;;;;;;;;5025087;28;19921;-91
2023/10/18 05:21:58;;;;;;;;;;;;;;;;;;5028353;28;19921;-91
2023/10/18 05:24:24;;;;;;;;;;;;;;;;;;5009116;28;19913;-90
2023/10/18 05:26:54;;;;;;;;;;;;;;;;;;5028277;28;19917;-90
2023/10/18 05:29:22;;;;;;;;;;;;;;;;;;5007746;28;19913;-90
2023/10/18 05:32:05;;;;;;;;;;;;;;;;;;5025031;28;19968;-90
2023/10/18 05:34:49;;;;;;;;;;;;;;;;;;5014842;28;19913;-90
2023/10/18 05:37:15;;;;;;;;;;;;;;;;;;5019838;28;19918;-90
2023/10/18 05:40:41;;;;;;;;;;;;;;;;;;5024576;28;19924;-91
2023/10/18 05:42:36;;;;;;;;;;;;;;;;;;5027597;28;20559;-91
2023/10/18 05:45:01;;;;;;;;;;;;;;;;;;5024237;28;19963;-90
2023/10/18 05:47:29;;;;;;;;;;;;;;;;;;5025036;28;19990;-90
2023/10/18 05:49:56;;;;;;;;;;;;;;;;;;5008290;28;19913;-90
2023/10/18 05:52:37;;;;;;;;;;;;;;;;;;5024797;28;19921;-90
2023/10/18 05:55:08;;;;;;;;;;;;;;;;;;5007831;28;19917;-88
2023/10/18 05:57:34;;;;;;;;;;;;;;;;;;5017862;28;20294;-88
2023/10/18 05:59:59;;;;;;;;;;;;;;;;;;5023207;28;19924;-88
2023/10/18 06:02:26;;;;;;;;;;;;;;;;;;5022966;28;19917;-88
2023/10/18 06:04:52;;;;;;;;;;;;;;;;;;5028911;28;19924;-88
2023/10/18 06:07:24;;;;;;;;;;;;;;;;;;5029053;28;19917;-87
2023/10/18 06:12:22;;;;;;;;;;;;;;;;;;5026129;28;19917;-89
2023/10/18 06:14:52;;;;;;;;;;;;;;;;;;5002184;28;19949;-89
2023/10/18 06:17:40;;;;;;;;;;;;;;;;;;5020791;28;19967;-89
2023/10/18 06:20:07;;;;;;;;;;;;;;;;;;5024540;28;19924;-89
2023/10/18 06:22:39;;;;;;;;;;;;;;;;;;5026274;28;19917;-89
2023/10/18 06:25:06;;;;;;;;;;;;;;;;;;5020704;28;19932;-90
2023/10/18 06:27:41;;;;;;;;;;;;;;;;;;5021887;28;20292;-88
2023/10/18 06:30:14;;;;;;;;;;;;;;;;;;5025732;28;19968;-88
2023/10/18 06:32:40;;;;;;;;;;;;;;;;;;5021837;28;20397;-90
2023/10/18 06:35:10;;;;;;;;;;;;;;;;;;5030457;28;19917;-89
2023/10/18 06:37:42;;;;;;;;;;;;;;;;;;5026902;28;19921;-88
2023/10/18 06:40:20;;;;;;;;;;;;;;;;;;5022668;27;20019;-90
2023/10/18 06:42:46;;;;;;;;;;;;;;;;;;5008457;28;20044;-90
2023/10/18 06:45:17;;;;;;;;;;;;;;;;;;5019328;28;19988;-89
2023/10/18 06:47:46;;;;;;;;;;;;;;;;;;5023425;28;19923;-90
2023/10/18 06:50:19;;;;;;;;;;;;;;;;;;5010792;28;19924;-90
2023/10/18 06:52:52;;;;;;;;;;;;;;;;;;5022748;28;19967;-89
2023/10/18 06:55:18;;;;;;;;;;;;;;;;;;5023250;28;19967;-89
2023/10/18 06:57:49;;;;;;;;;;;;;;;;;;5021845;28;19925;-89
2023/10/18 07:00:15;;;;;;;;;;;;;;;;;;5026036;28;19971;-90
2023/10/18 07:02:44;;;;;;;;;;;;;;;;;;5026751;28;19913;-90
2023/10/18 07:05:10;;;;;;;;;;;;;;;;;;5025811;28;20357;-89
2023/10/18 07:07:37;;;;;;;;;;;;;;;;;;5022540;28;19999;-88
2023/10/18 07:10:05;;;;;;;;;;;;;;;;;;5006908;28;19967;-89
2023/10/18 07:12:44;;;;;;;;;;;;;;;;;;5027673;28;19920;-89
2023/10/18 07:15:15;;;;;;;;;;;;;;;;;;5020070;28;19921;-89
2023/10/18 07:17:41;;;;;;;;;;;;;;;;;;5009029;28;19913;-89
2023/10/18 07:20:15;;;;;;;;;;;;;;;;;;5017922;28;20323;-88
2023/10/18 07:22:44;;;;;;;;;;;;;;;;;;5019802;28;19955;-88
2023/10/18 07:25:26;;;;;;;;;;;;;;;;;;5003369;28;20680;-88
2023/10/18 07:27:55;;;;;;;;;;;;;;;;;;5003623;28;19913;-88
2023/10/18 07:30:29;;;;;;;;;;;;;;;;;;5023408;28;19913;-88
2023/10/18 07:33:00;;;;;;;;;;;;;;;;;;5022393;28;19959;-88
2023/10/18 07:35:34;;;;;;;;;;;;;;;;;;5025184;28;19920;-87
2023/10/18 07:38:00;;;;;;;;;;;;;;;;;;5009275;28;19928;-88
2023/10/18 07:40:33;;;;;;;;;;;;;;;;;;5004581;28;19921;-88
2023/10/18 07:42:59;;;;;;;;;;;;;;;;;;5006152;28;20361;-88
2023/10/18 07:45:28;;;;;;;;;;;;;;;;;;5009399;28;19913;-88
2023/10/18 07:47:54;;;;;;;;;;;;;;;;;;5007238;28;19967;-88
2023/10/18 07:50:41;;;;;;;;;;;;;;;;;;5026499;28;20004;-88
2023/10/18 07:53:07;;;;;;;;;;;;;;;;;;5008780;28;19943;-88
2023/10/18 07:55:36;;;;;;;;;;;;;;;;;;5008989;28;19921;-88
2023/10/18 07:58:06;;;;;;;;;;;;;;;;;;5002127;28;20222;-88
2023/10/18 08:00:32;;;;;;;;;;;;;;;;;;5008672;28;19939;-89
2023/10/18 08:03:01;;;;;;;;;;;;;;;;;;5004823;28;19917;-88
2023/10/18 08:05:31;;;;;;;;;;;;;;;;;;5010071;28;19918;-88
2023/10/18 08:07:57;;;;;;;;;;;;;;;;;;5006918;28;19927;-88
2023/10/18 08:10:23;;;;;;;;;;;;;;;;;;5012115;28;20368;-88
2023/10/18 08:13:03;;;;;;;;;;;;;;;;;;5010977;28;19925;-88
2023/10/18 08:15:35;;;;;;;;;;;;;;;;;;5007323;28;19921;-88
2023/10/18 08:18:14;;;;;;;;;;;;;;;;;;5006579;28;20022;-89
2023/10/18 08:20:55;;;;;;;;;;;;;;;;;;5009826;28;19924;-89
2023/10/18 08:26:03;;;;;;;;;;;;;;;;;;5030896;28;20513;-89
2023/10/18 08:28:38;;;;;;;;;;;;;;;;;;5012292;28;19990;-89
2023/10/18 08:31:04;;;;;;;;;;;;;;;;;;5011248;28;20567;-88
2023/10/18 08:33:30;;;;;;;;;;;;;;;;;;5026760;28;19928;-89
2023/10/18 08:35:59;;;;;;;;;;;;;;;;;;5009905;28;19935;-89
2023/10/18 08:38:28;;;;;;;;;;;;;;;;;;5005294;28;19932;-89
2023/10/18 08:41:11;;;;;;;;;;;;;;;;;;5004007;28;19921;-88
2023/10/18 08:43:37;;;;;;;;;;;;;;;;;;5000078;28;19965;-89
2023/10/18 08:46:05;;;;;;;;;;;;;;;;;;5006509;28;20008;-89
2023/10/18 08:48:38;;;;;;;;;;;;;;;;;;5010304;28;19913;-89
2023/10/18 08:51:04;;;;;;;;;;;;;;;;;;5002936;28;19917;-89
2023/10/18 08:53:31;;;;;;;;;;;;;;;;;;5006150;28;19920;-89
2023/10/18 08:55:57;;;;;;;;;;;;;;;;;;5011638;28;19924;-89
2023/10/18 08:58:23;;;;;;;;;;;;;;;;;;5008459;28;20360;-89
2023/10/18 09:01:02;;;;;;;;;;;;;;;;;;5012597;28;20043;-89
2023/10/18 09:03:29;;;;;;;;;;;;;;;;;;5009479;28;19935;-89
2023/10/18 09:06:04;;;;;;;;;;;;;;;;;;5014675;28;19913;-89
2023/10/18 09:08:35;;;;;;;;;;;;;;;;;;5008189;28;20466;-90
2023/10/18 09:11:04;;;;;;;;;;;;;;;;;;5015067;28;19909;-89
2023/10/18 09:13:33;;;;;;;;;;;;;;;;;;5013936;28;19917;-89
2023/10/18 09:18:25;;;;;;;;;;;;;;;;;;5026715;28;20689;-89
2023/10/18 09:20:51;;;;;;;;;;;;;;;;;;5009543;28;19947;-88
2023/10/18 09:23:20;;;;;;;;;;;;;;;;;;5016164;28;20364;-87
2023/10/18 09:25:49;;;;;;;;;;;;;;;;;;5008894;28;19996;-87
2023/10/18 09:28:21;;;;;;;;;;;;;;;;;;5011690;28;19920;-88
2023/10/18 09:30:47;;;;;;;;;;;;;;;;;;5013926;28;19913;-88
2023/10/18 09:33:13;;;;;;;;;;;;;;;;;;5012465;28;19921;-88
2023/10/18 09:35:39;;;;;;;;;;;;;;;;;;5013716;28;20226;-88
2023/10/18 09:38:08;;;;;;;;;;;;;;;;;;5013966;28;19928;-88
2023/10/18 09:40:34;;;;;;;;;;;;;;;;;;5012350;28;19928;-85
2023/10/18 09:43:00;;;;;;;;;;;;;;;;;;5009754;28;20356;-85
2023/10/18 09:45:28;;;;;;;;;;;;;;;;;;5010420;28;19940;-86
2023/10/18 09:47:54;;;;;;;;;;;;;;;;;;5004984;28;19964;-86
2023/10/18 09:50:24;;;;;;;;;;;;;;;;;;5008556;28;20384;-86
2023/10/18 09:52:56;;;;;;;;;;;;;;;;;;5004498;28;19972;-86
2023/10/18 09:55:22;;;;;;;;;;;;;;;;;;5009878;28;20001;-86
2023/10/18 09:58:15;;;;;;;;;;;;;;;;;;5005295;28;19917;-86
2023/10/18 10:00:42;;;;;;;;;;;;;;;;;;5021700;28;19913;-86
2023/10/18 10:03:08;;;;;;;;;;;;;;;;;;5010559;28;20395;-86
2023/10/18 10:05:41;;;;;;;;;;;;;;;;;;5025743;28;19925;-85
2023/10/18 10:08:07;;;;;;;;;;;;;;;;;;5006771;28;20531;-85
2023/10/18 10:10:45;;;;;;;;;;;;;;;;;;5009140;28;20365;-86
2023/10/18 10:13:12;;;;;;;;;;;;;;;;;;5005559;28;19966;-86
2023/10/18 10:15:38;;;;;;;;;;;;;;;;;;5012850;28;19921;-86
2023/10/18 10:18:06;;;;;;;;;;;;;;;;;;5005340;28;19928;-86
2023/10/18 10:20:32;;;;;;;;;;;;;;;;;;5007271;28;20007;-86
2023/10/18 10:23:02;;;;;;;;;;;;;;;;;;5010615;28;20427;-86
2023/10/18 10:25:31;;;;;;;;;;;;;;;;;;5011201;28;19986;-87
2023/10/18 10:27:59;;;;;;;;;;;;;;;;;;5008165;28;19913;-86
2023/10/18 10:30:26;;;;;;;;;;;;;;;;;;5002093;28;20377;-86
2023/10/18 10:32:55;;;;;;;;;;;;;;;;;;5005922;28;19924;-86
2023/10/18 10:35:24;;;;;;;;;;;;;;;;;;5010591;28;19938;-86
2023/10/18 10:37:50;;;;;;;;;;;;;;;;;;5008983;28;20332;-87
2023/10/18 10:40:19;;;;;;;;;;;;;;;;;;5008544;28;19924;-86
2023/10/18 10:42:49;;;;;;;;;;;;;;;;;;5008889;27;20300;-87
2023/10/18 10:47:44;;;;;;;;;;;;;;;;;;5022551;28;20362;-89
2023/10/18 10:50:10;;;;;;;;;;;;;;;;;;5009235;28;20620;-89
2023/10/18 10:52:40;;;;;;;;;;;;;;;;;;5010885;28;19913;-88
2023/10/18 10:55:07;;;;;;;;;;;;;;;;;;5004527;28;19928;-88
2023/10/18 10:57:43;;;;;;;;;;;;;;;;;;5010631;28;19921;-89
2023/10/18 11:00:51;;;;;;;;;;;;;;;;;;5008204;28;19919;-89
2023/10/18 11:03:06;;;;;;;;;;;;;;;;;;5018827;28;20423;-89
2023/10/18 11:05:36;;;;;;;;;;;;;;;;;;5023369;28;19924;-88
2023/10/18 11:08:01;;;;;;;;;;;;;;;;;;5007750;28;20412;-87
2023/10/18 11:10:34;;;;;;;;;;;;;;;;;;5006972;28;19925;-86
2023/10/18 11:13:00;;;;;;;;;;;;;;;;;;5007619;28;19925;-87
2023/10/18 11:15:27;;;;;;;;;;;;;;;;;;5002410;28;19968;-86
2023/10/18 11:18:09;;;;;;;;;;;;;;;;;;5026829;28;19925;-86
2023/10/18 11:20:48;;;;;;;;;;;;;;;;;;5009496;28;19928;-86
2023/10/18 11:23:14;;;;;;;;;;;;;;;;;;5008295;28;19948;-87
2023/10/18 11:25:41;;;;;;;;;;;;;;;;;;5007489;28;20306;-87
2023/10/18 11:28:49;;;;;;;;;;;;;;;;;;5005150;28;19917;-87
2023/10/18 11:30:56;;;;;;;;;;;;;;;;;;5010262;28;20015;-86
2023/10/18 11:33:22;;;;;;;;;;;;;;;;;;5009602;28;20000;-86
2023/10/18 11:35:48;;;;;;;;;;;;;;;;;;5008467;28;20429;-86
2023/10/18 11:38:16;;;;;;;;;;;;;;;;;;5019829;28;19921;-87
2023/10/18 11:40:43;;;;;;;;;;;;;;;;;;5009269;28;20000;-87
2023/10/18 11:43:10;;;;;;;;;;;;;;;;;;5002016;28;19944;-86
2023/10/18 11:45:39;;;;;;;;;;;;;;;;;;5016095;28;19921;-88
2023/10/18 11:48:06;;;;;;;;;;;;;;;;;;5018739;28;19917;-87
2023/10/18 11:50:33;;;;;;;;;;;;;;;;;;5002639;28;20617;-86
2023/10/18 11:52:59;;;;;;;;;;;;;;;;;;5002445;28;20293;-87
2023/10/18 11:55:26;;;;;;;;;;;;;;;;;;5003994;28;19917;-87
2023/10/18 11:57:52;;;;;;;;;;;;;;;;;;5017910;28;19943;-86
2023/10/18 12:02:44;;;;;;;;;;;;;;;;;;5023201;28;20479;-86
2023/10/18 12:05:13;;;;;;;;;;;;;;;;;;5006747;28;19921;-87
2023/10/18 12:07:44;;;;;;;;;;;;;;;;;;5019586;28;19909;-88
2023/10/18 12:10:16;;;;;;;;;;;;;;;;;;5005891;28;20293;-88
2023/10/18 12:12:42;;;;;;;;;;;;;;;;;;5013314;28;19936;-88
2023/10/18 12:15:08;;;;;;;;;;;;;;;;;;5008010;28;20361;-88
2023/10/18 12:17:35;;;;;;;;;;;;;;;;;;5019767;28;19917;-87
2023/10/18 12:20:03;;;;;;;;;;;;;;;;;;5008587;28;19944;-88
2023/10/18 12:22:29;;;;;;;;;;;;;;;;;;5003862;28;19917;-88
2023/10/18 12:24:55;;;;;;;;;;;;;;;;;;5009446;28;20400;-88
2023/10/18 12:27:33;;;;;;;;;;;;;;;;;;5011742;28;19947;-88
2023/10/18 12:30:00;;;;;;;;;;;;;;;;;;5009250;28;19917;-88
2023/10/18 12:32:26;;;;;;;;;;;;;;;;;;5031338;28;19913;-88
2023/10/18 12:34:58;;;;;;;;;;;;;;;;;;5020890;28;20273;-88
2023/10/18 12:37:24;;;;;;;;;;;;;;;;;;5010699;28;19917;-88
2023/10/18 12:39:50;;;;;;;;;;;;;;;;;;5025216;28;19925;-88
2023/10/18 12:42:32;;;;;;;;;;;;;;;;;;5013731;28;19926;-88
2023/10/18 12:45:08;;;;;;;;;;;;;;;;;;5008469;28;19924;-88
2023/10/18 12:47:34;;;;;;;;;;;;;;;;;;5011141;28;20358;-88
2023/10/18 12:50:03;;;;;;;;;;;;;;;;;;5011523;28;20373;-88
2023/10/18 12:55:28;;;;;;;;;;;;;;;;;;5026081;28;20332;-88
2023/10/18 12:57:51;;;;;;;;;;;;;;;;;;5024304;28;19917;-88
2023/10/18 13:00:16;;;;;;;;;;;;;;;;;;5026069;28;19986;-88
2023/10/18 13:05:18;;;;;;;;;;;;;;;;;;5027795;28;20020;-88
2023/10/18 13:07:44;;;;;;;;;;;;;;;;;;5012975;28;19921;-88
2023/10/18 13:10:14;;;;;;;;;;;;;;;;;;5016046;28;19980;-88
2023/10/18 13:12:51;;;;;;;;;;;;;;;;;;5013336;28;19918;-88
2023/10/18 13:15:17;;;;;;;;;;;;;;;;;;5013225;28;20468;-88
2023/10/18 13:17:43;;;;;;;;;;;;;;;;;;5005709;28;19925;-88
2023/10/18 13:20:14;;;;;;;;;;;;;;;;;;5004441;28;19923;-87
2023/10/18 13:22:40;;;;;;;;;;;;;;;;;;5007522;28;19967;-88
2023/10/18 13:25:24;;;;;;;;;;;;;;;;;;5006372;28;19917;-88
2023/10/18 13:27:50;;;;;;;;;;;;;;;;;;5005294;28;19945;-86
2023/10/18 13:30:32;;;;;;;;;;;;;;;;;;5008383;28;19927;-87
2023/10/18 13:33:01;;;;;;;;;;;;;;;;;;5007967;28;19983;-86
2023/10/18 13:35:34;;;;;;;;;;;;;;;;;;5009559;28;19913;-86
2023/10/18 13:38:00;;;;;;;;;;;;;;;;;;5003310;28;19921;-86
2023/10/18 13:40:27;;;;;;;;;;;;;;;;;;5005531;28;20015;-87
2023/10/18 13:42:54;;;;;;;;;;;;;;;;;;5006563;27;20372;-86
2023/10/18 13:45:28;;;;;;;;;;;;;;;;;;4987236;28;20016;-86
2023/10/18 13:47:58;;;;;;;;;;;;;;;;;;4984801;28;19913;-86
2023/10/18 13:50:25;;;;;;;;;;;;;;;;;;4989602;28;19975;-86
2023/10/18 13:52:51;;;;;;;;;;;;;;;;;;5006039;28;19928;-87
2023/10/18 13:55:20;;;;;;;;;;;;;;;;;;4979102;28;19914;-86
2023/10/18 13:57:46;;;;;;;;;;;;;;;;;;5007226;28;20332;-87
2023/10/18 14:00:14;;;;;;;;;;;;;;;;;;4987666;28;19917;-86
2023/10/18 14:02:40;;;;;;;;;;;;;;;;;;4991173;28;19971;-86
2023/10/18 14:05:09;;;;;;;;;;;;;;;;;;4992532;28;19964;-86
2023/10/18 14:07:35;;;;;;;;;;;;;;;;;;4994457;28;19913;-86
2023/10/18 14:10:07;;;;;;;;;;;;;;;;;;4990684;28;20012;-86
2023/10/18 14:12:35;;;;;;;;;;;;;;;;;;4990675;28;19918;-87
2023/10/18 14:15:01;;;;;;;;;;;;;;;;;;5006287;28;19913;-86
2023/10/18 14:17:27;;;;;;;;;;;;;;;;;;4993377;28;19939;-86
2023/10/18 14:19:53;;;;;;;;;;;;;;;;;;4992396;28;20337;-87
2023/10/18 14:22:21;;;;;;;;;;;;;;;;;;4993185;28;19921;-86
2023/10/18 14:24:47;;;;;;;;;;;;;;;;;;4989199;28;20332;-87
2023/10/18 14:27:14;;;;;;;;;;;;;;;;;;4983236;28;19953;-85
2023/10/18 14:29:40;;;;;;;;;;;;;;;;;;4990033;28;19971;-88
2023/10/18 14:32:08;;;;;;;;;;;;;;;;;;4988628;28;19921;-87
2023/10/18 14:34:35;;;;;;;;;;;;;;;;;;4990002;28;19916;-88
2023/10/18 14:37:01;;;;;;;;;;;;;;;;;;5002560;28;19921;-88
2023/10/18 14:39:27;;;;;;;;;;;;;;;;;;4990991;28;20411;-86
2023/10/18 14:41:54;;;;;;;;;;;;;;;;;;5017902;27;19925;-86
2023/10/18 14:44:20;;;;;;;;;;;;;;;;;;5003415;28;19924;-86
2023/10/18 14:46:46;;;;;;;;;;;;;;;;;;5021047;28;19913;-87
2023/10/18 14:49:13;;;;;;;;;;;;;;;;;;5008451;28;19913;-86
2023/10/18 14:51:44;;;;;;;;;;;;;;;;;;5012477;28;19924;-87
2023/10/18 14:54:09;;;;;;;;;;;;;;;;;;5017562;28;19917;-86
2023/10/18 14:56:35;;;;;;;;;;;;;;;;;;5008901;28;20492;-86
2023/10/18 14:59:01;;;;;;;;;;;;;;;;;;5009742;28;19971;-86
2023/10/18 15:01:27;;;;;;;;;;;;;;;;;;5005482;28;19917;-86
2023/10/18 15:03:53;;;;;;;;;;;;;;;;;;5002847;28;20449;-86
2023/10/18 15:06:19;;;;;;;;;;;;;;;;;;5007745;28;19917;-87
2023/10/18 15:08:45;;;;;;;;;;;;;;;;;;5032593;28;20365;-86
2023/10/18 15:11:14;;;;;;;;;;;;;;;;;;5005828;28;19918;-87
2023/10/18 15:13:40;;;;;;;;;;;;;;;;;;4994610;28;19939;-87
2023/10/18 15:16:06;;;;;;;;;;;;;;;;;;5020434;28;20365;-86
2023/10/18 15:18:33;;;;;;;;;;;;;;;;;;5008110;28;19921;-86
2023/10/18 15:20:59;;;;;;;;;;;;;;;;;;5006569;28;20421;-87
2023/10/18 15:23:26;;;;;;;;;;;;;;;;;;5009543;28;19935;-86
2023/10/18 15:25:52;;;;;;;;;;;;;;;;;;5017439;28;19914;-87
2023/10/18 15:28:18;;;;;;;;;;;;;;;;;;5023212;28;19928;-87
2023/10/18 15:30:45;;;;;;;;;;;;;;;;;;5023029;28;19914;-86
2023/10/18 15:33:12;;;;;;;;;;;;;;;;;;5022022;28;20354;-86
2023/10/18 15:35:39;;;;;;;;;;;;;;;;;;5022991;28;19927;-86
2023/10/18 15:38:05;;;;;;;;;;;;;;;;;;5007357;28;19928;-86
2023/10/18 15:40:33;;;;;;;;;;;;;;;;;;5006919;28;19966;-87
2023/10/18 15:42:59;;;;;;;;;;;;;;;;;;5012479;28;20019;-87
2023/10/18 15:45:25;;;;;;;;;;;;;;;;;;5005470;28;20012;-86
2023/10/18 15:47:52;;;;;;;;;;;;;;;;;;5023109;28;20511;-89
2023/10/18 15:50:19;;;;;;;;;;;;;;;;;;5006354;28;19925;-89
2023/10/18 15:52:45;;;;;;;;;;;;;;;;;;5008552;28;19920;-88
2023/10/18 15:55:14;;;;;;;;;;;;;;;;;;5009042;28;19917;-89
2023/10/18 15:57:40;;;;;;;;;;;;;;;;;;5009904;28;19967;-89
2023/10/18 16:00:08;;;;;;;;;;;;;;;;;;5008103;28;19949;-88
2023/10/18 16:02:34;;;;;;;;;;;;;;;;;;5012909;28;19966;-89
2023/10/18 16:05:00;;;;;;;;;;;;;;;;;;5023821;28;20312;-89
2023/10/18 16:07:26;;;;;;;;;;;;;;;;;;5009865;28;19913;-89
2023/10/18 16:09:52;;;;;;;;;;;;;;;;;;5016067;28;20024;-88
2023/10/18 16:12:19;;;;;;;;;;;;;;;;;;5010616;28;19971;-88
2023/10/18 16:14:44;;;;;;;;;;;;;;;;;;5009676;28;19967;-88
2023/10/18 16:17:13;;;;;;;;;;;;;;;;;;5011471;28;19918;-89
2023/10/18 16:19:38;;;;;;;;;;;;;;;;;;5011040;28;20446;-88
2023/10/18 16:22:04;;;;;;;;;;;;;;;;;;5004134;28;19913;-89
2023/10/18 16:24:30;;;;;;;;;;;;;;;;;;5010303;28;19917;-88
2023/10/18 16:26:56;;;;;;;;;;;;;;;;;;5004030;28;19913;-89
2023/10/18 16:29:22;;;;;;;;;;;;;;;;;;5010165;28;20392;-89
2023/10/18 16:31:49;;;;;;;;;;;;;;;;;;5008539;28;20030;-87
2023/10/18 16:34:16;;;;;;;;;;;;;;;;;;5011757;28;19983;-89
2023/10/18 16:36:42;;;;;;;;;;;;;;;;;;5007734;28;19999;-88
2023/10/18 16:39:08;;;;;;;;;;;;;;;;;;5004753;28;19925;-88
2023/10/18 16:41:34;;;;;;;;;;;;;;;;;;5023450;28;19917;-88
2023/10/18 16:43:59;;;;;;;;;;;;;;;;;;5022099;28;19918;-88
2023/10/18 16:46:26;;;;;;;;;;;;;;;;;;5013815;28;19917;-88
2023/10/18 16:48:52;;;;;;;;;;;;;;;;;;5016944;28;19913;-85
2023/10/18 16:51:18;;;;;;;;;;;;;;;;;;5014035;28;19913;-87
2023/10/18 16:53:46;;;;;;;;;;;;;;;;;;5026070;28;20384;-86
2023/10/18 16:56:12;;;;;;;;;;;;;;;;;;5011251;28;20016;-86
2023/10/18 16:58:40;;;;;;;;;;;;;;;;;;5009833;28;20217;-88
2023/10/18 17:01:09;;;;;;;;;;;;;;;;;;5019728;28;19921;-88
2023/10/18 17:03:35;;;;;;;;;;;;;;;;;;5003958;28;20006;-89
2023/10/18 17:06:04;;;;;;;;;;;;;;;;;;5020382;28;19944;-88
2023/10/18 17:08:30;;;;;;;;;;;;;;;;;;5023632;28;19917;-88
2023/10/18 17:10:56;;;;;;;;;;;;;;;;;;5005073;28;19920;-89
2023/10/18 17:13:26;;;;;;;;;;;;;;;;;;5009627;28;20323;-88
2023/10/18 17:15:52;;;;;;;;;;;;;;;;;;5003277;28;20416;-88
2023/10/18 17:18:18;;;;;;;;;;;;;;;;;;5027633;28;19920;-88
2023/10/18 17:20:44;;;;;;;;;;;;;;;;;;5007119;28;19924;-88
2023/10/18 17:23:11;;;;;;;;;;;;;;;;;;5009569;28;19913;-88
2023/10/18 17:25:37;;;;;;;;;;;;;;;;;;5009060;28;19993;-89